sensor_id;sensor_type;location;lat;lon;timestamp;pressure;altitude;pressure_sealevel;temperature;humidity
43488;BME280;29078;41.932;25.554;2023-12-20T00:01:02;100009.34;;;2.42;70.20
43488;BME280;29078;41.932;25.554;2023-12-20T00:03:27;100009.91;;;2.34;69.31
43488;BME280;29078;41.932;25.554;2023-12-20T00:05:52;100008.84;;;2.37;70.08
43488;BME280;29078;41.932;25.554;2023-12-20T00:08:18;100016.31;;;2.41;70.73
43488;BME280;29078;41.932;25.554;2023-12-20T00:10:43;100001.63;;;2.40;70.58
43488;BME280;29078;41.932;25.554;2023-12-20T00:13:09;100001.75;;;2.39;69.89
43488;BME280;29078;41.932;25.554;2023-12-20T00:15:34;99994.53;;;2.42;70.03
43488;BME280;29078;41.932;25.554;2023-12-20T00:18:00;99999.84;;;2.41;70.25
43488;BME280;29078;41.932;25.554;2023-12-20T00:20:26;99996.41;;;2.40;69.71
43488;BME280;29078;41.932;25.554;2023-12-20T00:22:51;99997.59;;;2.36;70.00
43488;BME280;29078;41.932;25.554;2023-12-20T00:25:16;99996.75;;;2.36;69.77
43488;BME280;29078;41.932;25.554;2023-12-20T00:27:41;99988.59;;;2.40;70.29
43488;BME280;29078;41.932;25.554;2023-12-20T00:30:07;99991.22;;;2.40;70.27
43488;BME280;29078;41.932;25.554;2023-12-20T00:32:33;100000.09;;;2.38;69.66
43488;BME280;29078;41.932;25.554;2023-12-20T00:34:58;99999.25;;;2.37;70.00
43488;BME280;29078;41.932;25.554;2023-12-20T00:37:23;99996.41;;;2.40;70.66
43488;BME280;29078;41.932;25.554;2023-12-20T00:39:49;99983.63;;;2.37;70.16
43488;BME280;29078;41.932;25.554;2023-12-20T00:42:14;99990.84;;;2.34;70.14
43488;BME280;29078;41.932;25.554;2023-12-20T00:44:39;99991.06;;;2.31;69.99
43488;BME280;29078;41.932;25.554;2023-12-20T00:47:05;99988.69;;;2.28;70.46
43488;BME280;29078;41.932;25.554;2023-12-20T00:49:30;99984.53;;;2.25;70.48
43488;BME280;29078;41.932;25.554;2023-12-20T00:51:55;99978.16;;;2.29;70.77
43488;BME280;29078;41.932;25.554;2023-12-20T00:54:21;99974.50;;;2.32;70.69
43488;BME280;29078;41.932;25.554;2023-12-20T00:56:46;99977.81;;;2.34;69.94
43488;BME280;29078;41.932;25.554;2023-12-20T00:59:11;99986.69;;;2.31;69.80
43488;BME280;29078;41.932;25.554;2023-12-20T01:01:37;99972.00;;;2.30;69.95
43488;BME280;29078;41.932;25.554;2023-12-20T01:04:02;99968.34;;;2.33;69.85
43488;BME280;29078;41.932;25.554;2023-12-20T01:06:27;99966.66;;;2.32;69.95
43488;BME280;29078;41.932;25.554;2023-12-20T01:08:53;99967.38;;;2.34;70.31
43488;BME280;29078;41.932;25.554;2023-12-20T01:11:18;99964.41;;;2.27;70.07
43488;BME280;29078;41.932;25.554;2023-12-20T01:13:43;99961.22;;;2.23;69.91
43488;BME280;29078;41.932;25.554;2023-12-20T01:16:10;99951.81;;;2.21;70.11
43488;BME280;29078;41.932;25.554;2023-12-20T01:18:36;99957.97;;;2.20;69.70
43488;BME280;29078;41.932;25.554;2023-12-20T01:21:02;99953.22;;;2.14;69.52
43488;BME280;29078;41.932;25.554;2023-12-20T01:23:28;99944.91;;;2.09;69.81
43488;BME280;29078;41.932;25.554;2023-12-20T01:25:53;99944.09;;;2.08;69.62
43488;BME280;29078;41.932;25.554;2023-12-20T01:28:19;99939.00;;;2.07;69.75
43488;BME280;29078;41.932;25.554;2023-12-20T01:30:44;99936.84;;;2.01;69.03
43488;BME280;29078;41.932;25.554;2023-12-20T01:33:09;99941.22;;;2.00;69.92
43488;BME280;29078;41.932;25.554;2023-12-20T01:35:35;99936.34;;;1.96;69.76
43488;BME280;29078;41.932;25.554;2023-12-20T01:38:00;99938.34;;;1.92;69.61
43488;BME280;29078;41.932;25.554;2023-12-20T01:40:25;99936.81;;;1.89;69.73
43488;BME280;29078;41.932;25.554;2023-12-20T01:43:09;99929.94;;;1.88;69.85
43488;BME280;29078;41.932;25.554;2023-12-20T01:45:34;99922.59;;;1.82;69.11
43488;BME280;29078;41.932;25.554;2023-12-20T01:48:00;99923.97;;;1.75;69.18
43488;BME280;29078;41.932;25.554;2023-12-20T01:50:27;99922.53;;;1.71;69.42
43488;BME280;29078;41.932;25.554;2023-12-20T01:52:53;99916.84;;;1.66;69.19
43488;BME280;29078;41.932;25.554;2023-12-20T01:55:20;99912.69;;;1.64;69.47
43488;BME280;29078;41.932;25.554;2023-12-20T01:57:46;99915.06;;;1.67;69.81
43488;BME280;29078;41.932;25.554;2023-12-20T02:00:12;99915.06;;;1.67;69.77
43488;BME280;29078;41.932;25.554;2023-12-20T02:02:41;99902.66;;;1.70;70.24
43488;BME280;29078;41.932;25.554;2023-12-20T02:05:06;99900.88;;;1.71;69.77
43488;BME280;29078;41.932;25.554;2023-12-20T02:07:32;99904.09;;;1.74;69.93
43488;BME280;29078;41.932;25.554;2023-12-20T02:09:59;99891.81;;;1.76;69.66
43488;BME280;29078;41.932;25.554;2023-12-20T02:12:24;99890.25;;;1.74;69.24
43488;BME280;29078;41.932;25.554;2023-12-20T02:14:50;99877.59;;;1.69;69.73
43488;BME280;29078;41.932;25.554;2023-12-20T02:17:15;99883.50;;;1.71;69.70
43488;BME280;29078;41.932;25.554;2023-12-20T02:19:41;99877.81;;;1.66;69.92
43488;BME280;29078;41.932;25.554;2023-12-20T02:22:09;99872.59;;;1.66;69.58
43488;BME280;29078;41.932;25.554;2023-12-20T02:24:35;99875.22;;;1.66;69.95
43488;BME280;29078;41.932;25.554;2023-12-20T02:27:00;99871.44;;;1.70;69.85
43488;BME280;29078;41.932;25.554;2023-12-20T02:29:25;99864.56;;;1.69;69.67
43488;BME280;29078;41.932;25.554;2023-12-20T02:31:51;99873.44;;;1.67;69.74
43488;BME280;29078;41.932;25.554;2023-12-20T02:34:17;99857.00;;;1.66;69.78
43488;BME280;29078;41.932;25.554;2023-12-20T02:36:42;99860.53;;;1.65;69.64
43488;BME280;29078;41.932;25.554;2023-12-20T02:39:07;99857.44;;;1.60;69.30
43488;BME280;29078;41.932;25.554;2023-12-20T02:41:33;99859.56;;;1.55;69.67
43488;BME280;29078;41.932;25.554;2023-12-20T02:43:58;99853.75;;;1.51;69.27
43488;BME280;29078;41.932;25.554;2023-12-20T02:46:23;99845.22;;;1.49;69.60
43488;BME280;29078;41.932;25.554;2023-12-20T02:48:49;99840.50;;;1.54;69.93
43488;BME280;29078;41.932;25.554;2023-12-20T02:51:14;99836.25;;;1.53;69.62
43488;BME280;29078;41.932;25.554;2023-12-20T02:53:39;99832.00;;;1.52;69.45
43488;BME280;29078;41.932;25.554;2023-12-20T02:56:05;99832.22;;;1.49;69.52
43488;BME280;29078;41.932;25.554;2023-12-20T02:58:30;99834.91;;;1.48;69.49
43488;BME280;29078;41.932;25.554;2023-12-20T03:00:55;99826.59;;;1.43;69.04
43488;BME280;29078;41.932;25.554;2023-12-20T03:03:21;99834.75;;;1.38;69.38
43488;BME280;29078;41.932;25.554;2023-12-20T03:05:46;99816.66;;;1.37;69.03
43488;BME280;29078;41.932;25.554;2023-12-20T03:08:11;99818.19;;;1.39;69.70
43488;BME280;29078;41.932;25.554;2023-12-20T03:10:37;99813.94;;;1.38;69.37
43488;BME280;29078;41.932;25.554;2023-12-20T03:13:02;99808.50;;;1.41;69.60
43488;BME280;29078;41.932;25.554;2023-12-20T03:15:27;99809.22;;;1.43;69.49
43488;BME280;29078;41.932;25.554;2023-12-20T03:17:52;99808.28;;;1.44;69.20
43488;BME280;29078;41.932;25.554;2023-12-20T03:20:18;99804.13;;;1.42;69.31
43488;BME280;29078;41.932;25.554;2023-12-20T03:22:43;99802.13;;;1.45;69.95
43488;BME280;29078;41.932;25.554;2023-12-20T03:25:08;99793.50;;;1.45;69.49
43488;BME280;29078;41.932;25.554;2023-12-20T03:27:33;99805.25;;;1.50;69.91
43488;BME280;29078;41.932;25.554;2023-12-20T03:29:59;99805.97;;;1.52;69.82
43488;BME280;29078;41.932;25.554;2023-12-20T03:32:24;99806.78;;;1.53;69.37
43488;BME280;29078;41.932;25.554;2023-12-20T03:34:49;99802.41;;;1.53;69.34
43488;BME280;29078;41.932;25.554;2023-12-20T03:37:14;99797.22;;;1.53;69.32
43488;BME280;29078;41.932;25.554;2023-12-20T03:39:40;99798.16;;;1.52;69.39
43488;BME280;29078;41.932;25.554;2023-12-20T03:42:05;99796.38;;;1.53;69.57
43488;BME280;29078;41.932;25.554;2023-12-20T03:44:30;99788.59;;;1.53;69.28
43488;BME280;29078;41.932;25.554;2023-12-20T03:46:56;99787.75;;;1.52;69.75
43488;BME280;29078;41.932;25.554;2023-12-20T03:49:21;99793.28;;;1.48;69.05
43488;BME280;29078;41.932;25.554;2023-12-20T03:51:46;99792.91;;;1.41;69.45
43488;BME280;29078;41.932;25.554;2023-12-20T03:54:12;99784.00;;;1.33;69.75
43488;BME280;29078;41.932;25.554;2023-12-20T03:56:37;99789.09;;;1.34;69.90
43488;BME280;29078;41.932;25.554;2023-12-20T03:59:02;99783.16;;;1.32;69.64
43488;BME280;29078;41.932;25.554;2023-12-20T04:01:28;99781.50;;;1.31;69.58
43488;BME280;29078;41.932;25.554;2023-12-20T04:03:53;99786.50;;;1.34;69.33
43488;BME280;29078;41.932;25.554;2023-12-20T04:06:18;99773.59;;;1.33;69.44
43488;BME280;29078;41.932;25.554;2023-12-20T04:08:44;99780.56;;;1.32;69.49
43488;BME280;29078;41.932;25.554;2023-12-20T04:11:09;99783.88;;;1.34;69.39
43488;BME280;29078;41.932;25.554;2023-12-20T04:13:34;99786.81;;;1.30;69.11
43488;BME280;29078;41.932;25.554;2023-12-20T04:15:59;99782.56;;;1.28;69.29
43488;BME280;29078;41.932;25.554;2023-12-20T04:18:24;99780.31;;;1.24;69.12
43488;BME280;29078;41.932;25.554;2023-12-20T04:20:50;99785.63;;;1.22;69.31
43488;BME280;29078;41.932;25.554;2023-12-20T04:23:16;99783.75;;;1.24;69.11
43488;BME280;29078;41.932;25.554;2023-12-20T04:25:42;99782.78;;;1.25;69.22
43488;BME280;29078;41.932;25.554;2023-12-20T04:28:07;99784.56;;;1.25;69.48
43488;BME280;29078;41.932;25.554;2023-12-20T04:30:32;99780.19;;;1.25;69.47
43488;BME280;29078;41.932;25.554;2023-12-20T04:32:58;99781.03;;;1.26;69.32
43488;BME280;29078;41.932;25.554;2023-12-20T04:35:23;99790.72;;;1.24;69.38
43488;BME280;29078;41.932;25.554;2023-12-20T04:37:48;99785.28;;;1.27;69.19
43488;BME280;29078;41.932;25.554;2023-12-20T04:40:14;99780.69;;;1.31;69.41
43488;BME280;29078;41.932;25.554;2023-12-20T04:42:40;99772.06;;;1.30;69.44
43488;BME280;29078;41.932;25.554;2023-12-20T04:45:05;99777.13;;;1.32;69.06
43488;BME280;29078;41.932;25.554;2023-12-20T04:47:30;99775.47;;;1.31;68.91
43488;BME280;29078;41.932;25.554;2023-12-20T04:49:56;99777.13;;;1.32;69.49
43488;BME280;29078;41.932;25.554;2023-12-20T04:52:21;99771.00;;;1.33;69.38
43488;BME280;29078;41.932;25.554;2023-12-20T04:54:46;99765.91;;;1.31;69.60
43488;BME280;29078;41.932;25.554;2023-12-20T04:57:12;99767.56;;;1.32;68.93
43488;BME280;29078;41.932;25.554;2023-12-20T04:59:37;99757.38;;;1.29;68.90
43488;BME280;29078;41.932;25.554;2023-12-20T05:02:02;99751.13;;;1.32;68.80
43488;BME280;29078;41.932;25.554;2023-12-20T05:04:28;99746.97;;;1.29;68.71
43488;BME280;29078;41.932;25.554;2023-12-20T05:06:53;99744.50;;;1.27;68.98
43488;BME280;29078;41.932;25.554;2023-12-20T05:09:18;99739.53;;;1.24;69.27
43488;BME280;29078;41.932;25.554;2023-12-20T05:11:43;99741.53;;;1.21;69.34
43488;BME280;29078;41.932;25.554;2023-12-20T05:14:09;99750.88;;;1.23;69.28
43488;BME280;29078;41.932;25.554;2023-12-20T05:16:34;99748.03;;;1.26;69.33
43488;BME280;29078;41.932;25.554;2023-12-20T05:18:59;99746.84;;;1.19;68.78
43488;BME280;29078;41.932;25.554;2023-12-20T05:21:27;99749.22;;;1.22;69.30
43488;BME280;29078;41.932;25.554;2023-12-20T05:23:52;99750.97;;;1.22;69.19
43488;BME280;29078;41.932;25.554;2023-12-20T05:26:17;99750.03;;;1.23;69.24
43488;BME280;29078;41.932;25.554;2023-12-20T05:28:43;99753.34;;;1.25;69.30
43488;BME280;29078;41.932;25.554;2023-12-20T05:31:08;99754.53;;;1.21;68.64
43488;BME280;29078;41.932;25.554;2023-12-20T05:33:34;99752.75;;;1.21;68.39
43488;BME280;29078;41.932;25.554;2023-12-20T05:35:59;99741.41;;;1.22;69.14
43488;BME280;29078;41.932;25.554;2023-12-20T05:38:24;99729.00;;;1.26;69.01
43488;BME280;29078;41.932;25.554;2023-12-20T05:40:49;99731.38;;;1.29;69.05
43488;BME280;29078;41.932;25.554;2023-12-20T05:43:15;99726.88;;;1.31;69.04
43488;BME280;29078;41.932;25.554;2023-12-20T05:45:40;99727.50;;;1.35;68.92
43488;BME280;29078;41.932;25.554;2023-12-20T05:48:05;99729.38;;;1.33;68.62
43488;BME280;29078;41.932;25.554;2023-12-20T05:50:31;99724.28;;;1.31;68.69
43488;BME280;29078;41.932;25.554;2023-12-20T05:52:56;99721.56;;;1.33;68.86
43488;BME280;29078;41.932;25.554;2023-12-20T05:55:21;99716.38;;;1.33;68.80
43488;BME280;29078;41.932;25.554;2023-12-20T05:57:47;99713.50;;;1.24;68.22
43488;BME280;29078;41.932;25.554;2023-12-20T06:00:13;99712.81;;;1.22;68.46
43488;BME280;29078;41.932;25.554;2023-12-20T06:02:38;99716.00;;;1.26;68.92
43488;BME280;29078;41.932;25.554;2023-12-20T06:05:05;99709.97;;;1.25;68.39
43488;BME280;29078;41.932;25.554;2023-12-20T06:07:30;99715.78;;;1.29;68.60
43488;BME280;29078;41.932;25.554;2023-12-20T06:09:55;99712.22;;;1.30;69.01
43488;BME280;29078;41.932;25.554;2023-12-20T06:12:20;99703.59;;;1.30;68.47
43488;BME280;29078;41.932;25.554;2023-12-20T06:14:46;99712.13;;;1.32;68.78
43488;BME280;29078;41.932;25.554;2023-12-20T06:17:11;99711.41;;;1.30;68.87
43488;BME280;29078;41.932;25.554;2023-12-20T06:19:36;99705.84;;;1.34;69.20
43488;BME280;29078;41.932;25.554;2023-12-20T06:22:01;99706.44;;;1.38;68.43
43488;BME280;29078;41.932;25.554;2023-12-20T06:24:27;99712.59;;;1.37;68.38
43488;BME280;29078;41.932;25.554;2023-12-20T06:26:53;99705.72;;;1.36;68.25
43488;BME280;29078;41.932;25.554;2023-12-20T06:29:18;99703.63;;;1.41;68.54
43488;BME280;29078;41.932;25.554;2023-12-20T06:31:43;99706.94;;;1.43;68.64
43488;BME280;29078;41.932;25.554;2023-12-20T06:34:09;99705.03;;;1.45;68.35
43488;BME280;29078;41.932;25.554;2023-12-20T06:36:35;99704.91;;;1.46;68.97
43488;BME280;29078;41.932;25.554;2023-12-20T06:39:00;99709.53;;;1.43;68.64
43488;BME280;29078;41.932;25.554;2023-12-20T06:41:26;99716.63;;;1.41;68.55
43488;BME280;29078;41.932;25.554;2023-12-20T06:43:51;99711.31;;;1.42;68.68
43488;BME280;29078;41.932;25.554;2023-12-20T06:46:18;99709.53;;;1.43;68.51
43488;BME280;29078;41.932;25.554;2023-12-20T06:48:43;99716.63;;;1.41;68.53
43488;BME280;29078;41.932;25.554;2023-12-20T06:51:12;99708.81;;;1.41;68.04
43488;BME280;29078;41.932;25.554;2023-12-20T06:53:38;99709.75;;;1.40;68.89
43488;BME280;29078;41.932;25.554;2023-12-20T06:56:03;99711.06;;;1.45;68.91
43488;BME280;29078;41.932;25.554;2023-12-20T06:58:28;99710.84;;;1.48;69.11
43488;BME280;29078;41.932;25.554;2023-12-20T07:00:53;99715.72;;;1.53;69.00
43488;BME280;29078;41.932;25.554;2023-12-20T07:03:19;99721.88;;;1.52;69.10
43488;BME280;29078;41.932;25.554;2023-12-20T07:05:44;99705.78;;;1.58;68.42
43488;BME280;29078;41.932;25.554;2023-12-20T07:08:09;99702.84;;;1.63;68.84
43488;BME280;29078;41.932;25.554;2023-12-20T07:10:36;99706.75;;;1.68;68.48
43488;BME280;29078;41.932;25.554;2023-12-20T07:13:01;99687.81;;;1.66;68.69
43488;BME280;29078;41.932;25.554;2023-12-20T07:15:26;99686.28;;;1.75;68.61
43488;BME280;29078;41.932;25.554;2023-12-20T07:17:52;99688.28;;;1.82;68.91
43488;BME280;29078;41.932;25.554;2023-12-20T07:20:17;99686.16;;;1.87;68.31
43488;BME280;29078;41.932;25.554;2023-12-20T07:22:42;99680.84;;;1.89;68.94
43488;BME280;29078;41.932;25.554;2023-12-20T07:25:07;99683.78;;;1.96;68.33
43488;BME280;29078;41.932;25.554;2023-12-20T07:27:33;99675.50;;;2.02;68.29
43488;BME280;29078;41.932;25.554;2023-12-20T07:29:58;99680.09;;;2.09;68.39
43488;BME280;29078;41.932;25.554;2023-12-20T07:32:23;99673.69;;;2.13;68.36
43488;BME280;29078;41.932;25.554;2023-12-20T07:34:49;99674.88;;;2.20;68.71
43488;BME280;29078;41.932;25.554;2023-12-20T07:37:14;99676.91;;;2.28;68.93
43488;BME280;29078;41.932;25.554;2023-12-20T07:39:39;99675.56;;;2.34;69.07
43488;BME280;29078;41.932;25.554;2023-12-20T07:42:05;99672.59;;;2.38;68.35
43488;BME280;29078;41.932;25.554;2023-12-20T07:44:30;99664.03;;;2.47;68.60
43488;BME280;29078;41.932;25.554;2023-12-20T07:46:56;99665.69;;;2.48;68.23
43488;BME280;29078;41.932;25.554;2023-12-20T07:49:21;99663.56;;;2.53;68.44
43488;BME280;29078;41.932;25.554;2023-12-20T07:51:46;99665.41;;;2.63;68.89
43488;BME280;29078;41.932;25.554;2023-12-20T07:54:12;99661.59;;;2.67;68.69
43488;BME280;29078;41.932;25.554;2023-12-20T07:56:37;99652.69;;;2.69;68.19
43488;BME280;29078;41.932;25.554;2023-12-20T07:59:02;99659.06;;;2.76;68.18
43488;BME280;29078;41.932;25.554;2023-12-20T08:01:27;99648.97;;;2.83;68.14
43488;BME280;29078;41.932;25.554;2023-12-20T08:03:53;99648.72;;;2.86;68.65
43488;BME280;29078;41.932;25.554;2023-12-20T08:06:18;99654.50;;;2.90;68.06
43488;BME280;29078;41.932;25.554;2023-12-20T08:08:43;99645.72;;;2.91;68.23
43488;BME280;29078;41.932;25.554;2023-12-20T08:11:08;99644.50;;;2.95;68.36
43488;BME280;29078;41.932;25.554;2023-12-20T08:13:34;99644.16;;;2.99;68.11
43488;BME280;29078;41.932;25.554;2023-12-20T08:15:59;99638.19;;;3.08;68.45
43488;BME280;29078;41.932;25.554;2023-12-20T08:18:24;99636.72;;;3.15;68.36
43488;BME280;29078;41.932;25.554;2023-12-20T08:20:50;99641.28;;;3.23;68.13
43488;BME280;29078;41.932;25.554;2023-12-20T08:23:17;99637.47;;;3.27;67.90
43488;BME280;29078;41.932;25.554;2023-12-20T08:25:43;99640.25;;;3.35;68.15
43488;BME280;29078;41.932;25.554;2023-12-20T08:28:08;99637.13;;;3.41;68.42
43488;BME280;29078;41.932;25.554;2023-12-20T08:30:33;99633.88;;;3.49;68.00
43488;BME280;29078;41.932;25.554;2023-12-20T08:32:59;99627.28;;;3.55;67.81
43488;BME280;29078;41.932;25.554;2023-12-20T08:35:25;99621.53;;;3.61;67.98
43488;BME280;29078;41.932;25.554;2023-12-20T08:37:50;99613.44;;;3.64;67.83
43488;BME280;29078;41.932;25.554;2023-12-20T08:40:15;99610.44;;;3.68;68.10
43488;BME280;29078;41.932;25.554;2023-12-20T08:42:40;99604.72;;;3.74;67.83
43488;BME280;29078;41.932;25.554;2023-12-20T08:45:06;99602.53;;;3.79;67.67
43488;BME280;29078;41.932;25.554;2023-12-20T08:47:31;99600.34;;;3.85;67.83
43488;BME280;29078;41.932;25.554;2023-12-20T08:49:56;99596.38;;;3.90;67.65
43488;BME280;29078;41.932;25.554;2023-12-20T08:52:24;99587.16;;;3.96;67.81
43488;BME280;29078;41.932;25.554;2023-12-20T08:54:50;99586.63;;;4.02;67.76
43488;BME280;29078;41.932;25.554;2023-12-20T08:57:17;99583.47;;;4.08;67.71
43488;BME280;29078;41.932;25.554;2023-12-20T08:59:42;99571.53;;;4.15;67.52
43488;BME280;29078;41.932;25.554;2023-12-20T09:02:08;99567.25;;;4.24;67.55
43488;BME280;29078;41.932;25.554;2023-12-20T09:04:33;99562.16;;;4.32;67.65
43488;BME280;29078;41.932;25.554;2023-12-20T09:06:59;99561.63;;;4.38;67.48
43488;BME280;29078;41.932;25.554;2023-12-20T09:09:25;99550.63;;;4.44;67.42
43488;BME280;29078;41.932;25.554;2023-12-20T09:11:50;99551.59;;;4.53;67.41
43488;BME280;29078;41.932;25.554;2023-12-20T09:14:16;99540.72;;;4.57;67.22
43488;BME280;29078;41.932;25.554;2023-12-20T09:16:41;99533.13;;;4.64;67.07
43488;BME280;29078;41.932;25.554;2023-12-20T09:19:07;99526.81;;;4.66;67.17
43488;BME280;29078;41.932;25.554;2023-12-20T09:21:32;99515.91;;;4.71;66.98
43488;BME280;29078;41.932;25.554;2023-12-20T09:23:57;99517.97;;;4.77;67.05
43488;BME280;29078;41.932;25.554;2023-12-20T09:26:22;99512.16;;;4.83;66.89
43488;BME280;29078;41.932;25.554;2023-12-20T09:28:48;99505.69;;;4.87;67.21
43488;BME280;29078;41.932;25.554;2023-12-20T09:31:13;99499.06;;;4.93;67.20
43488;BME280;29078;41.932;25.554;2023-12-20T09:33:38;99507.16;;;4.99;66.88
43488;BME280;29078;41.932;25.554;2023-12-20T09:36:03;99502.19;;;5.06;66.92
43488;BME280;29078;41.932;25.554;2023-12-20T09:38:29;99488.50;;;5.12;66.81
43488;BME280;29078;41.932;25.554;2023-12-20T09:40:54;99483.81;;;5.16;67.22
43488;BME280;29078;41.932;25.554;2023-12-20T09:43:20;99472.09;;;5.20;66.71
43488;BME280;29078;41.932;25.554;2023-12-20T09:45:49;99469.22;;;5.23;67.09
43488;BME280;29078;41.932;25.554;2023-12-20T09:48:18;99462.03;;;5.25;67.03
43488;BME280;29078;41.932;25.554;2023-12-20T09:50:44;99459.13;;;5.28;66.80
43488;BME280;29078;41.932;25.554;2023-12-20T09:53:09;99455.53;;;5.29;67.09
43488;BME280;29078;41.932;25.554;2023-12-20T09:55:36;99449.03;;;5.33;66.91
43488;BME280;29078;41.932;25.554;2023-12-20T09:58:03;99456.84;;;5.42;66.44
43488;BME280;29078;41.932;25.554;2023-12-20T10:00:28;99448.53;;;5.47;66.66
43488;BME280;29078;41.932;25.554;2023-12-20T10:02:57;99446.81;;;5.56;66.68
43488;BME280;29078;41.932;25.554;2023-12-20T10:05:26;99441.66;;;5.64;66.68
43488;BME280;29078;41.932;25.554;2023-12-20T10:07:51;99432.09;;;5.72;66.32
43488;BME280;29078;41.932;25.554;2023-12-20T10:10:17;99439.34;;;5.79;66.08
43488;BME280;29078;41.932;25.554;2023-12-20T10:12:46;99428.94;;;5.87;66.32
43488;BME280;29078;41.932;25.554;2023-12-20T10:15:25;99424.66;;;5.95;66.22
43488;BME280;29078;41.932;25.554;2023-12-20T10:17:50;99416.19;;;6.01;65.55
43488;BME280;29078;41.932;25.554;2023-12-20T10:20:16;99413.09;;;6.06;66.29
43488;BME280;29078;41.932;25.554;2023-12-20T10:22:41;99403.81;;;6.12;65.49
43488;BME280;29078;41.932;25.554;2023-12-20T10:25:07;99395.34;;;6.18;66.21
43488;BME280;29078;41.932;25.554;2023-12-20T10:27:32;99394.72;;;6.24;65.80
43488;BME280;29078;41.932;25.554;2023-12-20T10:29:58;99397.41;;;6.32;65.51
43488;BME280;29078;41.932;25.554;2023-12-20T10:32:25;99388.91;;;6.38;65.36
43488;BME280;29078;41.932;25.554;2023-12-20T10:34:50;99371.56;;;6.45;65.87
43488;BME280;29078;41.932;25.554;2023-12-20T10:37:16;99381.78;;;6.56;65.28
43488;BME280;29078;41.932;25.554;2023-12-20T10:39:42;99381.16;;;6.62;65.35
43488;BME280;29078;41.932;25.554;2023-12-20T10:42:08;99368.72;;;6.64;65.46
43488;BME280;29078;41.932;25.554;2023-12-20T10:44:34;99371.81;;;6.60;64.52
43488;BME280;29078;41.932;25.554;2023-12-20T10:46:59;99370.31;;;6.57;64.72
43488;BME280;29078;41.932;25.554;2023-12-20T10:49:25;99365.53;;;6.53;64.70
43488;BME280;29078;41.932;25.554;2023-12-20T10:51:52;99361.75;;;6.47;65.07
43488;BME280;29078;41.932;25.554;2023-12-20T10:54:19;99355.03;;;6.45;64.73
43488;BME280;29078;41.932;25.554;2023-12-20T10:56:44;99351.41;;;6.46;64.69
43488;BME280;29078;41.932;25.554;2023-12-20T10:59:10;99346.00;;;6.47;65.23
43488;BME280;29078;41.932;25.554;2023-12-20T11:01:36;99341.28;;;6.51;64.79
43488;BME280;29078;41.932;25.554;2023-12-20T11:04:02;99336.34;;;6.48;64.64
43488;BME280;29078;41.932;25.554;2023-12-20T11:09:06;99341.13;;;6.52;65.25
43488;BME280;29078;41.932;25.554;2023-12-20T11:14:17;99326.56;;;6.58;64.78
43488;BME280;29078;41.932;25.554;2023-12-20T11:16:44;99321.66;;;6.63;64.77
43488;BME280;29078;41.932;25.554;2023-12-20T11:19:10;99319.53;;;6.66;65.03
43488;BME280;29078;41.932;25.554;2023-12-20T11:21:38;99325.44;;;6.68;65.08
43488;BME280;29078;41.932;25.554;2023-12-20T11:24:04;99310.69;;;6.67;64.76
43488;BME280;29078;41.932;25.554;2023-12-20T11:26:32;99307.25;;;6.67;64.72
43488;BME280;29078;41.932;25.554;2023-12-20T11:31:41;99298.94;;;6.72;64.93
43488;BME280;29078;41.932;25.554;2023-12-20T11:34:12;99304.69;;;6.75;64.44
43488;BME280;29078;41.932;25.554;2023-12-20T11:36:38;99305.03;;;6.80;64.06
43488;BME280;29078;41.932;25.554;2023-12-20T11:39:04;99289.63;;;6.85;64.11
43488;BME280;29078;41.932;25.554;2023-12-20T11:41:33;99290.94;;;6.89;64.06
43488;BME280;29078;41.932;25.554;2023-12-20T11:43:59;99283.72;;;6.91;63.88
43488;BME280;29078;41.932;25.554;2023-12-20T11:46:26;99290.28;;;6.95;63.95
43488;BME280;29078;41.932;25.554;2023-12-20T11:48:51;99281.44;;;6.96;64.26
43488;BME280;29078;41.932;25.554;2023-12-20T11:51:16;99268.97;;;6.98;64.12
43488;BME280;29078;41.932;25.554;2023-12-20T11:53:42;99264.38;;;7.00;64.43
43488;BME280;29078;41.932;25.554;2023-12-20T11:56:07;99271.44;;;7.00;64.16
43488;BME280;29078;41.932;25.554;2023-12-20T11:58:33;99257.50;;;6.99;63.94
43488;BME280;29078;41.932;25.554;2023-12-20T12:00:58;99257.50;;;6.99;64.13
43488;BME280;29078;41.932;25.554;2023-12-20T12:03:24;99248.63;;;7.00;64.44
43488;BME280;29078;41.932;25.554;2023-12-20T12:05:49;99245.03;;;7.01;64.14
43488;BME280;29078;41.932;25.554;2023-12-20T12:08:15;99243.22;;;7.02;64.20
43488;BME280;29078;41.932;25.554;2023-12-20T12:10:40;99241.09;;;7.06;65.06
43488;BME280;29078;41.932;25.554;2023-12-20T12:13:05;99235.50;;;7.09;64.25
43488;BME280;29078;41.932;25.554;2023-12-20T12:15:31;99224.69;;;7.12;64.45
43488;BME280;29078;41.932;25.554;2023-12-20T12:17:57;99222.88;;;7.12;63.85
43488;BME280;29078;41.932;25.554;2023-12-20T12:20:22;99222.72;;;7.14;64.12
43488;BME280;29078;41.932;25.554;2023-12-20T12:22:59;99219.09;;;7.15;63.99
43488;BME280;29078;41.932;25.554;2023-12-20T12:25:25;99208.94;;;7.12;63.90
43488;BME280;29078;41.932;25.554;2023-12-20T12:27:50;99204.19;;;7.07;63.98
43488;BME280;29078;41.932;25.554;2023-12-20T12:30:16;99207.13;;;7.04;63.97
43488;BME280;29078;41.932;25.554;2023-12-20T12:32:43;99210.25;;;6.99;64.40
43488;BME280;29078;41.932;25.554;2023-12-20T12:35:09;99201.72;;;6.97;64.89
43488;BME280;29078;41.932;25.554;2023-12-20T12:37:35;99202.03;;;6.94;64.73
43488;BME280;29078;41.932;25.554;2023-12-20T12:40:03;99201.38;;;6.92;64.93
43488;BME280;29078;41.932;25.554;2023-12-20T12:42:30;99192.69;;;6.92;64.90
43488;BME280;29078;41.932;25.554;2023-12-20T12:44:55;99191.06;;;6.91;64.23
43488;BME280;29078;41.932;25.554;2023-12-20T12:47:21;99183.19;;;6.91;65.11
43488;BME280;29078;41.932;25.554;2023-12-20T12:49:47;99187.28;;;6.93;65.21
43488;BME280;29078;41.932;25.554;2023-12-20T12:52:12;99182.19;;;6.92;64.73
43488;BME280;29078;41.932;25.554;2023-12-20T12:54:38;99177.59;;;6.94;64.55
43488;BME280;29078;41.932;25.554;2023-12-20T12:57:03;99168.09;;;6.93;64.76
43488;BME280;29078;41.932;25.554;2023-12-20T12:59:28;99175.78;;;6.94;64.66